createdAt,value
2024-01-06T00:00:24.357Z,18.75
2024-01-06T00:02:51.240Z,25.92
2024-01-06T00:05:18.030Z,25.77
2024-01-06T00:07:44.632Z,24.58
2024-01-06T00:10:12.070Z,23.45
2024-01-06T00:12:39.608Z,24.35
2024-01-06T00:15:07.039Z,24.27
2024-01-06T00:17:33.720Z,25.73
2024-01-06T00:20:01.555Z,24.20
2024-01-06T00:22:28.406Z,25.55
2024-01-06T00:24:55.048Z,25.30
2024-01-06T00:27:21.713Z,25.92
2024-01-06T00:29:48.605Z,25.83
2024-01-06T00:32:15.423Z,25.63
2024-01-06T00:34:42.103Z,26.52
2024-01-06T00:37:08.802Z,25.83
2024-01-06T00:39:35.576Z,20.52
2024-01-06T00:42:02.212Z,17.08
2024-01-06T00:44:28.957Z,22.05
2024-01-06T00:46:55.510Z,23.20
2024-01-06T00:49:22.189Z,26.13
2024-01-06T00:51:49.091Z,26.33
2024-01-06T00:54:15.832Z,26.90
2024-01-06T00:56:43.980Z,26.05
2024-01-06T00:59:10.972Z,20.83
2024-01-06T01:01:37.647Z,19.05
2024-01-06T01:04:04.616Z,13.40
2024-01-06T01:06:31.369Z,20.02
2024-01-06T01:08:57.990Z,19.80
2024-01-06T01:11:24.607Z,16.17
2024-01-06T01:13:51.250Z,16.85
2024-01-06T01:16:17.869Z,16.77
2024-01-06T01:18:44.754Z,18.25
2024-01-06T01:21:11.896Z,16.40
2024-01-06T01:23:38.540Z,14.73
2024-01-06T01:26:05.245Z,13.95
2024-01-06T01:28:34.646Z,13.60
2024-01-06T01:31:01.380Z,12.40
2024-01-06T01:33:28.374Z,12.68
2024-01-06T01:35:55.070Z,11.55
2024-01-06T01:38:21.665Z,11.52
2024-01-06T01:40:48.302Z,11.25
2024-01-06T01:43:19.275Z,13.65
2024-01-06T01:45:51.218Z,10.63
2024-01-06T01:48:18.227Z,9.60
2024-01-06T01:50:45.136Z,9.60
2024-01-06T01:53:13.393Z,9.88
2024-01-06T01:55:41.702Z,9.75
2024-01-06T01:58:09.142Z,22.83
2024-01-06T02:00:36.080Z,10.75
2024-01-06T02:03:05.731Z,10.05
2024-01-06T02:05:32.444Z,8.43
2024-01-06T02:07:59.362Z,8.23
2024-01-06T02:10:26.039Z,7.68
2024-01-06T02:12:52.926Z,7.50
2024-01-06T02:15:20.509Z,7.32
2024-01-06T02:17:47.293Z,6.53
2024-01-06T02:20:15.554Z,7.05
2024-01-06T02:22:42.140Z,7.07
2024-01-06T02:25:13.631Z,8.32
2024-01-06T02:27:40.724Z,8.07
2024-01-06T02:30:08.617Z,8.15
2024-01-06T02:32:35.779Z,8.43
2024-01-06T02:35:02.520Z,15.60
2024-01-06T02:37:29.231Z,14.13
2024-01-06T02:39:55.860Z,12.02
2024-01-06T02:42:22.811Z,12.35
2024-01-06T02:44:49.411Z,12.38
2024-01-06T02:47:16.034Z,10.30
2024-01-06T02:49:42.861Z,7.50
2024-01-06T02:52:09.515Z,8.32
2024-01-06T02:54:36.198Z,11.52
2024-01-06T02:57:02.798Z,9.43
2024-01-06T02:59:29.348Z,6.93
2024-01-06T03:01:56.007Z,8.57
2024-01-06T03:04:22.731Z,9.18
2024-01-06T03:06:53.608Z,10.20
2024-01-06T03:09:23.124Z,10.55
2024-01-06T03:11:49.748Z,10.52
2024-01-06T03:14:16.439Z,10.55
2024-01-06T03:16:43.089Z,10.82
2024-01-06T03:19:09.753Z,10.77
2024-01-06T03:21:39.213Z,10.20
2024-01-06T03:24:06.481Z,11.40
2024-01-06T03:26:33.283Z,11.63
2024-01-06T03:29:00.622Z,11.48
2024-01-06T03:31:27.271Z,10.07
2024-01-06T03:33:55.817Z,10.75
2024-01-06T03:36:23.084Z,11.00
2024-01-06T03:38:49.903Z,11.80
2024-01-06T03:41:16.704Z,11.52
2024-01-06T03:43:43.311Z,12.32
2024-01-06T03:46:09.992Z,12.55
2024-01-06T03:48:36.743Z,13.25
2024-01-06T03:51:03.963Z,12.82
2024-01-06T03:53:30.608Z,13.60
2024-01-06T03:55:57.208Z,14.65
2024-01-06T03:58:23.876Z,14.02
2024-01-06T04:00:50.575Z,17.23
2024-01-06T04:03:17.343Z,24.63
2024-01-06T04:05:44.068Z,18.85
2024-01-06T04:08:10.676Z,14.77
2024-01-06T04:10:37.438Z,15.80
2024-01-06T04:13:04.273Z,18.77
2024-01-06T04:15:30.873Z,16.38
2024-01-06T04:17:57.806Z,18.63
2024-01-06T04:20:24.435Z,17.05
2024-01-06T04:22:51.076Z,16.48
2024-01-06T04:25:17.804Z,13.02
2024-01-06T04:27:46.473Z,8.93
2024-01-06T04:30:14.400Z,12.10
2024-01-06T04:32:41.554Z,11.80
2024-01-06T04:35:08.733Z,14.93
2024-01-06T04:37:35.399Z,13.85
2024-01-06T04:40:02.267Z,14.52
2024-01-06T04:42:28.894Z,14.80
2024-01-06T04:44:55.603Z,15.68
2024-01-06T04:47:22.274Z,16.25
2024-01-06T04:49:49.002Z,17.27
2024-01-06T04:52:15.702Z,17.02
2024-01-06T04:54:42.385Z,17.00
2024-01-06T04:57:09.057Z,12.40
2024-01-06T04:59:35.672Z,17.38
2024-01-06T05:02:02.699Z,12.85
2024-01-06T05:04:31.960Z,16.73
2024-01-06T05:06:58.743Z,17.70
2024-01-06T05:09:26.972Z,17.40
2024-01-06T05:11:53.546Z,17.00
2024-01-06T05:14:20.175Z,17.70
2024-01-06T05:16:47.064Z,17.92
2024-01-06T05:19:20.538Z,17.45
2024-01-06T05:21:49.263Z,17.55
2024-01-06T05:24:15.940Z,18.23
2024-01-06T05:26:45.388Z,19.27
2024-01-06T05:29:12.067Z,21.17
2024-01-06T05:31:38.743Z,20.52
2024-01-06T05:34:05.917Z,34.72
2024-01-06T05:36:33.129Z,35.95
2024-01-06T05:39:01.571Z,22.08
2024-01-06T05:41:28.281Z,25.85
2024-01-06T05:43:55.077Z,25.55
2024-01-06T05:46:23.122Z,34.85
2024-01-06T05:48:49.897Z,30.95
2024-01-06T05:51:16.776Z,22.25
2024-01-06T05:53:43.478Z,21.55
2024-01-06T05:56:10.684Z,23.83
2024-01-06T06:01:04.255Z,25.08
2024-01-06T06:03:31.010Z,22.30
2024-01-06T06:05:57.690Z,21.25
2024-01-06T06:08:24.366Z,24.27
2024-01-06T06:11:03.123Z,21.70
2024-01-06T06:13:29.969Z,26.65
2024-01-06T06:15:57.195Z,34.08
2024-01-06T06:20:50.806Z,22.42
2024-01-06T06:23:17.401Z,22.10
2024-01-06T06:25:44.229Z,22.38
2024-01-06T06:28:10.863Z,19.65
2024-01-06T06:30:37.632Z,19.83
2024-01-06T06:33:04.724Z,19.02
2024-01-06T06:35:31.434Z,19.98
2024-01-06T06:37:58.227Z,15.52
2024-01-06T06:40:25.218Z,20.33
2024-01-06T06:42:51.933Z,15.68
2024-01-06T06:45:21.788Z,21.67
2024-01-06T06:47:48.512Z,20.88
2024-01-06T06:50:15.310Z,20.92
2024-01-06T06:52:43.267Z,31.13
2024-01-06T06:55:09.954Z,23.48
2024-01-06T06:57:37.195Z,21.60
2024-01-06T07:00:04.268Z,21.80
2024-01-06T07:02:30.985Z,35.88
2024-01-06T07:04:57.622Z,40.35
2024-01-06T07:07:24.188Z,32.60
2024-01-06T07:09:50.948Z,23.52
2024-01-06T07:12:17.607Z,22.15
2024-01-06T07:14:44.168Z,21.10
2024-01-06T07:17:11.030Z,21.45
2024-01-06T07:19:39.741Z,22.52
2024-01-06T07:22:07.442Z,22.08
2024-01-06T07:24:34.539Z,21.67
2024-01-06T07:27:01.163Z,25.88
2024-01-06T07:29:27.695Z,24.90
2024-01-06T07:31:54.400Z,24.85
2024-01-06T07:34:21.276Z,26.02
2024-01-06T07:36:47.966Z,39.80
2024-01-06T07:39:14.897Z,36.47
2024-01-06T07:41:41.543Z,34.47
2024-01-06T07:44:08.195Z,26.15
2024-01-06T07:46:36.477Z,25.67
2024-01-06T07:49:03.192Z,28.35
2024-01-06T07:51:29.912Z,28.52
2024-01-06T07:53:56.705Z,27.20
2024-01-06T07:56:23.314Z,18.27
2024-01-06T07:58:49.981Z,20.27
2024-01-06T08:01:16.758Z,21.60
2024-01-06T08:03:43.937Z,24.80
2024-01-06T08:06:11.419Z,25.45
2024-01-06T08:08:38.549Z,30.75
2024-01-06T08:11:05.332Z,31.38
2024-01-06T08:13:31.933Z,34.33
2024-01-06T08:15:58.842Z,29.88
2024-01-06T08:18:25.881Z,25.90
2024-01-06T08:20:53.174Z,24.95
2024-01-06T08:23:21.747Z,26.05
2024-01-06T08:25:48.444Z,25.08
2024-01-06T08:28:16.079Z,22.92
2024-01-06T08:30:44.082Z,25.45
2024-01-06T08:33:11.135Z,30.95
2024-01-06T08:35:41.736Z,30.73
2024-01-06T08:38:08.746Z,22.27
2024-01-06T08:40:36.555Z,21.80
2024-01-06T08:43:04.185Z,20.00
2024-01-06T08:45:31.089Z,23.17
2024-01-06T08:47:58.370Z,20.45
2024-01-06T08:52:51.562Z,21.17
2024-01-06T08:55:18.166Z,21.58
2024-01-06T08:57:44.855Z,20.75
2024-01-06T09:00:12.303Z,21.10
2024-01-06T09:02:39.525Z,22.27
2024-01-06T09:05:06.590Z,17.38
2024-01-06T09:07:33.270Z,19.70
2024-01-06T09:10:00.731Z,16.73
2024-01-06T09:12:27.593Z,12.35
2024-01-06T09:14:54.237Z,4.63
2024-01-06T09:17:23.953Z,11.30
2024-01-06T09:19:50.874Z,6.10
2024-01-06T09:22:17.546Z,8.18
2024-01-06T09:24:44.415Z,3.88
2024-01-06T09:27:11.099Z,2.78
2024-01-06T09:29:37.692Z,2.25
2024-01-06T09:32:04.741Z,2.38
2024-01-06T09:34:31.504Z,2.28
2024-01-06T09:36:58.308Z,1.90
2024-01-06T09:39:25.162Z,3.28
2024-01-06T09:41:51.957Z,2.88
2024-01-06T09:44:19.441Z,5.93
2024-01-06T09:46:46.131Z,3.03
2024-01-06T09:49:14.728Z,2.50
2024-01-06T09:51:41.741Z,2.38
2024-01-06T09:54:13.645Z,3.50
2024-01-06T09:56:40.712Z,4.32
2024-01-06T09:59:07.292Z,3.47
2024-01-06T10:01:33.923Z,4.03
2024-01-06T10:04:00.662Z,3.97
2024-01-06T10:06:27.684Z,2.70
2024-01-06T10:08:54.583Z,3.58
2024-01-06T10:11:23.825Z,2.50
2024-01-06T10:13:51.982Z,7.25
2024-01-06T10:16:20.025Z,3.55
2024-01-06T10:18:51.203Z,2.80
2024-01-06T10:21:23.091Z,4.65
2024-01-06T10:23:49.974Z,8.98
2024-01-06T10:26:16.642Z,2.90
2024-01-06T10:28:43.309Z,2.38
2024-01-06T10:31:10.600Z,7.93
2024-01-06T10:36:06.258Z,12.63
2024-01-06T10:38:35.593Z,2.42
2024-01-06T10:41:08.251Z,4.38
2024-01-06T10:43:37.906Z,3.67
2024-01-06T10:46:06.167Z,5.25
2024-01-06T10:48:36.741Z,2.65
2024-01-06T10:51:08.567Z,3.53
2024-01-06T10:53:38.550Z,2.33
2024-01-06T10:56:05.958Z,2.13
2024-01-06T11:01:01.451Z,3.17
2024-01-06T11:03:30.899Z,3.33
2024-01-06T11:06:00.237Z,2.45
2024-01-06T11:08:29.742Z,2.17
2024-01-06T11:10:56.691Z,8.50
2024-01-06T11:13:24.275Z,3.25
2024-01-06T11:15:55.827Z,2.55
2024-01-06T11:18:35.906Z,5.45
2024-01-06T11:21:15.461Z,3.38
2024-01-06T11:23:42.187Z,4.15
2024-01-06T11:26:08.787Z,3.22
2024-01-06T11:28:54.753Z,2.63
2024-01-06T11:31:21.418Z,2.70
2024-01-06T11:33:52.567Z,2.78
2024-01-06T11:36:21.300Z,2.30
2024-01-06T11:38:51.829Z,3.22
2024-01-06T11:41:53.377Z,3.17
2024-01-06T11:44:25.710Z,2.60
2024-01-06T11:46:54.304Z,2.45
2024-01-06T11:49:22.459Z,2.17
2024-01-06T11:51:50.128Z,2.80
2024-01-06T11:54:17.344Z,2.63
2024-01-06T11:56:44.108Z,2.65
2024-01-06T11:59:10.737Z,3.10
2024-01-06T12:01:39.083Z,4.47
2024-01-06T12:04:08.375Z,2.33
2024-01-06T12:06:35.703Z,3.20
2024-01-06T12:11:39.022Z,3.58
2024-01-06T12:14:05.970Z,2.83
2024-01-06T12:16:34.003Z,2.38
2024-01-06T12:19:02.286Z,2.72
2024-01-06T12:21:29.182Z,3.33
2024-01-06T12:24:13.376Z,2.92
2024-01-06T12:26:42.899Z,2.90
2024-01-06T12:29:10.157Z,3.08
2024-01-06T12:31:40.136Z,2.85
2024-01-06T12:34:08.847Z,3.38
2024-01-06T12:36:44.690Z,5.05
2024-01-06T12:39:15.788Z,3.30
2024-01-06T12:41:42.447Z,4.40
2024-01-06T12:44:10.739Z,3.42
2024-01-06T12:46:37.338Z,3.25
2024-01-06T12:49:04.319Z,2.88
2024-01-06T12:51:31.543Z,9.65
2024-01-06T12:53:58.254Z,7.40
2024-01-06T12:56:24.896Z,3.28
2024-01-06T12:58:51.771Z,3.10
2024-01-06T13:01:18.873Z,7.78
2024-01-06T13:03:45.812Z,3.42
2024-01-06T13:06:12.685Z,5.32
2024-01-06T13:08:43.097Z,5.88
2024-01-06T13:11:10.189Z,5.55
2024-01-06T13:13:36.915Z,11.20
2024-01-06T13:16:07.876Z,6.45
2024-01-06T13:18:34.730Z,10.30
2024-01-06T13:21:01.559Z,3.45
2024-01-06T13:23:28.603Z,13.65
2024-01-06T13:25:58.771Z,16.05
2024-01-06T13:28:25.856Z,10.65
2024-01-06T13:31:05.023Z,10.70
2024-01-06T13:33:32.314Z,16.08
2024-01-06T13:38:27.138Z,9.15
2024-01-06T13:40:54.372Z,15.32
2024-01-06T13:43:20.942Z,18.50
2024-01-06T13:45:50.220Z,12.80
2024-01-06T13:48:18.619Z,12.88
2024-01-06T13:50:51.572Z,10.23
2024-01-06T13:53:18.420Z,6.85
2024-01-06T13:55:48.146Z,6.68
2024-01-06T13:58:14.729Z,7.28
2024-01-06T14:00:41.543Z,6.03
2024-01-06T14:03:08.396Z,6.65
2024-01-06T14:05:36.145Z,6.60
2024-01-06T14:08:03.219Z,7.28
2024-01-06T14:10:31.022Z,6.00
2024-01-06T14:12:57.926Z,7.70
2024-01-06T14:15:24.792Z,8.60
2024-01-06T14:18:04.094Z,9.80
2024-01-06T14:20:32.989Z,9.70
2024-01-06T14:23:02.674Z,11.60
2024-01-06T14:25:35.321Z,12.95
2024-01-06T14:28:02.498Z,14.82
2024-01-06T14:30:30.536Z,13.05
2024-01-06T14:32:57.252Z,14.02
2024-01-06T14:35:23.931Z,24.40
2024-01-06T14:37:54.781Z,21.25
2024-01-06T14:40:21.486Z,8.45
2024-01-06T14:42:50.996Z,10.18
2024-01-06T14:45:19.557Z,8.90
2024-01-06T14:47:48.357Z,11.10
2024-01-06T14:50:16.652Z,11.43
2024-01-06T14:55:11.199Z,10.25
2024-01-06T14:57:38.046Z,8.52
2024-01-06T15:00:08.940Z,11.95
2024-01-06T15:02:35.500Z,12.90
2024-01-06T15:05:02.372Z,11.50
2024-01-06T15:07:28.986Z,10.68
2024-01-06T15:09:55.713Z,12.67
2024-01-06T15:12:22.485Z,9.93
2024-01-06T15:14:49.107Z,9.80
2024-01-06T15:17:15.769Z,10.98
2024-01-06T15:19:42.735Z,25.60
2024-01-06T15:22:09.497Z,20.85
2024-01-06T15:24:36.125Z,13.32
2024-01-06T15:27:03.045Z,15.55
2024-01-06T15:29:29.647Z,11.55
2024-01-06T15:31:59.576Z,12.60
2024-01-06T15:34:26.575Z,14.20
2024-01-06T15:36:53.547Z,15.45
2024-01-06T15:39:20.299Z,15.88
2024-01-06T15:41:46.986Z,14.40
2024-01-06T15:44:13.566Z,11.40
2024-01-06T15:46:46.003Z,9.32
2024-01-06T15:49:13.064Z,6.15
2024-01-06T15:51:42.977Z,12.18
2024-01-06T15:54:09.792Z,11.73
2024-01-06T15:56:36.398Z,5.35
2024-01-06T15:59:03.025Z,11.25
2024-01-06T16:01:30.218Z,9.07
2024-01-06T16:03:56.925Z,9.30
2024-01-06T16:06:23.732Z,12.90
2024-01-06T16:08:53.578Z,10.82
2024-01-06T16:11:20.152Z,10.32
2024-01-06T16:13:46.793Z,14.95
2024-01-06T16:16:14.629Z,14.80
2024-01-06T16:18:41.494Z,13.00
2024-01-06T16:21:08.408Z,10.63
2024-01-06T16:23:35.231Z,9.38
2024-01-06T16:26:02.058Z,10.50
2024-01-06T16:28:28.632Z,6.72
2024-01-06T16:30:55.661Z,7.18
2024-01-06T16:33:22.484Z,5.88
2024-01-06T16:35:49.369Z,7.18
2024-01-06T16:38:15.917Z,7.78
2024-01-06T16:40:42.544Z,7.63
2024-01-06T16:43:09.322Z,7.20
2024-01-06T16:45:36.092Z,6.43
2024-01-06T16:48:02.917Z,4.85
2024-01-06T16:50:29.603Z,5.60
2024-01-06T16:52:56.181Z,5.10
2024-01-06T16:55:23.085Z,9.75
2024-01-06T16:57:49.713Z,7.13
2024-01-06T17:00:19.517Z,7.55
2024-01-06T17:02:46.189Z,5.90
2024-01-06T17:05:13.028Z,9.35
2024-01-06T17:07:42.350Z,7.10
2024-01-06T17:10:09.324Z,6.72
2024-01-06T17:12:36.064Z,6.15
2024-01-06T17:15:02.793Z,5.20
2024-01-06T17:17:29.952Z,8.07
2024-01-06T17:19:57.343Z,8.85
2024-01-06T17:24:50.566Z,14.85
2024-01-06T17:27:17.251Z,24.70
2024-01-06T17:29:51.783Z,19.25
2024-01-06T17:32:26.944Z,33.30
2024-01-06T17:34:56.468Z,21.38
2024-01-06T17:37:23.315Z,10.77
2024-01-06T17:39:49.961Z,9.65
2024-01-06T17:42:19.573Z,13.68
2024-01-06T17:44:47.376Z,24.23
2024-01-06T17:47:18.116Z,11.55
2024-01-06T17:49:44.754Z,11.00
2024-01-06T17:52:12.619Z,8.90
2024-01-06T17:54:39.813Z,6.43
2024-01-06T17:57:06.835Z,48.20
2024-01-06T17:59:36.213Z,11.90
2024-01-06T18:02:02.978Z,12.57
2024-01-06T18:04:29.687Z,13.40
2024-01-06T18:06:56.658Z,15.15
2024-01-06T18:09:23.527Z,8.02
2024-01-06T18:11:50.406Z,11.65
2024-01-06T18:14:17.447Z,15.10
2024-01-06T18:16:47.111Z,11.93
2024-01-06T18:19:14.057Z,13.27
2024-01-06T18:21:40.720Z,9.73
2024-01-06T18:24:07.386Z,10.25
2024-01-06T18:26:34.139Z,11.75
2024-01-06T18:29:06.324Z,8.55
2024-01-06T18:31:32.996Z,8.50
2024-01-06T18:34:00.554Z,13.45
2024-01-06T18:36:27.357Z,8.48
2024-01-06T18:38:54.212Z,11.68
2024-01-06T18:41:20.822Z,16.52
2024-01-06T18:43:47.482Z,16.00
2024-01-06T18:46:14.268Z,8.00
2024-01-06T18:48:41.179Z,9.32
2024-01-06T18:51:07.840Z,6.18
2024-01-06T18:53:36.333Z,4.70
2024-01-06T18:56:04.244Z,5.00
2024-01-06T18:58:30.838Z,3.40
2024-01-06T19:00:57.617Z,3.42
2024-01-06T19:03:24.398Z,4.10
2024-01-06T19:05:51.069Z,8.48
2024-01-06T19:08:17.854Z,13.68
2024-01-06T19:10:44.440Z,7.20
2024-01-06T19:13:11.059Z,11.82
2024-01-06T19:15:40.748Z,10.02
2024-01-06T19:18:07.525Z,5.88
2024-01-06T19:20:34.214Z,7.50
2024-01-06T19:23:06.996Z,10.18
2024-01-06T19:25:36.996Z,9.02
2024-01-06T19:30:30.554Z,3.97
2024-01-06T19:32:57.336Z,3.85
2024-01-06T19:35:23.980Z,4.28
2024-01-06T19:37:50.744Z,6.57
2024-01-06T19:40:19.630Z,6.47
2024-01-06T19:42:51.907Z,3.88
2024-01-06T19:45:19.176Z,3.80
2024-01-06T19:47:46.257Z,3.85
2024-01-06T19:50:13.232Z,3.17
2024-01-06T19:52:39.889Z,3.13
2024-01-06T19:55:11.275Z,3.22
2024-01-06T19:57:38.140Z,2.67
2024-01-06T20:00:05.892Z,2.63
2024-01-06T20:02:32.480Z,2.83
2024-01-06T20:04:59.212Z,2.55
2024-01-06T20:07:30.004Z,3.03
2024-01-06T20:09:58.201Z,3.10
2024-01-06T20:12:25.999Z,2.47
2024-01-06T20:14:58.471Z,3.00
2024-01-06T20:17:25.835Z,2.58
2024-01-06T20:22:20.035Z,2.92
2024-01-06T20:24:46.734Z,3.22
2024-01-06T20:27:13.650Z,4.00
2024-01-06T20:29:40.196Z,3.00
2024-01-06T20:32:07.465Z,2.53
2024-01-06T20:37:01.248Z,2.85
2024-01-06T20:39:27.986Z,2.92
2024-01-06T20:41:54.680Z,3.03
2024-01-06T20:44:21.850Z,3.10
2024-01-06T20:46:49.820Z,3.17
2024-01-06T20:49:16.547Z,2.75
2024-01-06T20:51:43.332Z,2.80
2024-01-06T20:54:09.967Z,2.95
2024-01-06T20:56:37.582Z,2.90
2024-01-06T20:59:04.219Z,2.50
2024-01-06T21:01:30.990Z,2.80
2024-01-06T21:03:57.893Z,2.40
2024-01-06T21:06:24.821Z,2.53
2024-01-06T21:08:51.533Z,3.20
2024-01-06T21:11:18.216Z,2.70
2024-01-06T21:13:44.887Z,2.50
2024-01-06T21:16:11.672Z,2.60
2024-01-06T21:18:38.889Z,2.90
2024-01-06T21:21:06.145Z,2.70
2024-01-06T21:26:12.910Z,3.22
2024-01-06T21:28:39.747Z,2.78
2024-01-06T21:31:12.935Z,2.90
2024-01-06T21:33:39.833Z,3.03
2024-01-06T21:36:07.425Z,2.80
2024-01-06T21:38:34.067Z,6.22
2024-01-06T21:41:01.852Z,18.77
2024-01-06T21:43:28.440Z,4.20
2024-01-06T21:45:55.911Z,3.33
2024-01-06T21:48:22.773Z,4.43
2024-01-06T21:50:49.729Z,3.55
2024-01-06T21:53:16.544Z,3.28
2024-01-06T21:55:44.191Z,3.55
2024-01-06T21:58:10.917Z,3.58
2024-01-06T22:00:37.624Z,5.50
2024-01-06T22:03:05.674Z,3.95
2024-01-06T22:05:32.386Z,3.13
2024-01-06T22:07:59.065Z,5.30
2024-01-06T22:10:33.295Z,3.58
2024-01-06T22:13:01.398Z,3.30
2024-01-06T22:15:28.242Z,2.60
2024-01-06T22:17:56.036Z,3.53
2024-01-06T22:20:22.997Z,2.83
2024-01-06T22:22:49.915Z,3.03
2024-01-06T22:25:16.849Z,2.65
2024-01-06T22:27:43.585Z,3.63
2024-01-06T22:30:12.021Z,3.20
2024-01-06T22:32:39.245Z,3.33
2024-01-06T22:35:06.322Z,3.92
2024-01-06T22:37:32.996Z,3.35
2024-01-06T22:39:59.674Z,3.08
2024-01-06T22:42:26.529Z,2.72
2024-01-06T22:44:53.060Z,3.30
2024-01-06T22:47:19.909Z,4.35
2024-01-06T22:49:46.445Z,3.00
2024-01-06T22:52:13.321Z,3.70
2024-01-06T22:54:43.472Z,3.88
2024-01-06T22:57:10.057Z,3.53
2024-01-06T22:59:36.957Z,4.63
2024-01-06T23:02:03.641Z,4.50
2024-01-06T23:04:30.451Z,5.85
2024-01-06T23:06:57.798Z,9.23
2024-01-06T23:11:52.202Z,6.90
2024-01-06T23:14:18.823Z,4.63
2024-01-06T23:16:48.461Z,4.40
2024-01-06T23:19:15.697Z,5.45
2024-01-06T23:21:44.054Z,5.25
2024-01-06T23:24:13.962Z,6.10
2024-01-06T23:26:40.612Z,6.88
2024-01-06T23:29:10.341Z,3.33
2024-01-06T23:31:37.860Z,5.00
2024-01-06T23:34:05.778Z,5.60
2024-01-06T23:36:37.030Z,5.65
2024-01-06T23:39:04.799Z,3.20
2024-01-06T23:41:31.394Z,3.72
2024-01-06T23:43:58.026Z,3.10
2024-01-06T23:49:15.845Z,2.58
2024-01-06T23:51:42.549Z,3.33
2024-01-06T23:54:09.173Z,2.75
2024-01-06T23:56:38.912Z,4.35
2024-01-06T23:59:05.522Z,4.10
